createdAt,value
2019-05-20T00:00:53.219Z,16.10
2019-05-20T00:02:57.173Z,16.00
2019-05-20T00:05:02.743Z,15.90
2019-05-20T00:07:06.841Z,15.90
2019-05-20T00:09:11.037Z,15.90
2019-05-20T00:11:15.143Z,15.90
2019-05-20T00:13:18.977Z,15.80
2019-05-20T00:15:22.944Z,15.80
2019-05-20T00:17:28.375Z,15.80
2019-05-20T00:19:33.719Z,15.70
2019-05-20T00:21:37.557Z,15.80
2019-05-20T00:23:42.754Z,15.60
2019-05-20T00:25:46.672Z,15.70
2019-05-20T00:27:50.794Z,15.60
2019-05-20T00:29:54.796Z,15.50
2019-05-20T00:31:58.906Z,15.50
2019-05-20T00:34:02.931Z,15.50
2019-05-20T00:36:06.838Z,15.60
2019-05-20T00:38:10.757Z,15.60
2019-05-20T00:40:14.753Z,15.50
2019-05-20T00:42:18.740Z,15.50
2019-05-20T00:44:22.859Z,15.40
2019-05-20T00:46:26.759Z,15.40
2019-05-20T00:48:30.660Z,15.40
2019-05-20T00:50:35.167Z,15.40
2019-05-20T00:52:39.294Z,15.40
2019-05-20T00:54:43.199Z,15.30
2019-05-20T00:56:48.944Z,15.40
2019-05-20T00:58:54.340Z,15.40
2019-05-20T01:01:21.001Z,15.30
2019-05-20T01:03:26.487Z,15.20
2019-05-20T01:05:33.188Z,15.10
2019-05-20T01:07:37.194Z,15.10
2019-05-20T01:09:41.054Z,15.20
2019-05-20T01:11:45.108Z,15.20
2019-05-20T01:13:50.185Z,15.10
2019-05-20T01:15:54.146Z,15.10
2019-05-20T01:17:58.154Z,15.10
2019-05-20T01:20:02.139Z,15.10
2019-05-20T01:22:05.949Z,15.10
2019-05-20T01:24:09.878Z,15.20
2019-05-20T01:26:15.877Z,15.10
2019-05-20T01:28:25.667Z,15.00
2019-05-20T01:30:29.820Z,14.90
2019-05-20T01:32:33.859Z,14.90
2019-05-20T01:34:37.835Z,14.90
2019-05-20T01:36:41.800Z,14.90
2019-05-20T01:38:45.809Z,14.80
2019-05-20T01:40:49.856Z,14.70
2019-05-20T01:42:53.926Z,14.70
2019-05-20T01:44:59.576Z,14.70
2019-05-20T01:47:03.494Z,14.70
2019-05-20T01:49:08.858Z,14.70
2019-05-20T01:51:12.701Z,14.70
2019-05-20T01:53:16.570Z,14.60
2019-05-20T01:55:23.297Z,14.60
2019-05-20T01:57:27.288Z,14.50
2019-05-20T01:59:31.414Z,14.40
2019-05-20T02:01:35.628Z,14.40
2019-05-20T02:03:40.729Z,14.50
2019-05-20T02:05:44.715Z,14.50
2019-05-20T02:07:48.679Z,14.50
2019-05-20T02:09:52.580Z,14.40
2019-05-20T02:11:56.484Z,14.40
2019-05-20T02:14:01.946Z,14.50
2019-05-20T02:16:07.358Z,14.50
2019-05-20T02:18:11.243Z,14.50
2019-05-20T02:20:17.176Z,14.50
2019-05-20T02:22:20.864Z,14.40
2019-05-20T02:24:25.572Z,14.40
2019-05-20T02:26:29.641Z,14.40
2019-05-20T02:28:33.530Z,14.40
2019-05-20T02:30:37.884Z,14.40
2019-05-20T02:32:41.890Z,14.30
2019-05-20T02:34:46.204Z,14.30
2019-05-20T02:36:50.450Z,14.40
2019-05-20T02:38:54.343Z,14.30
2019-05-20T02:40:58.226Z,14.30
2019-05-20T02:43:02.335Z,14.30
2019-05-20T02:45:09.207Z,14.30
2019-05-20T02:47:13.083Z,14.30
2019-05-20T02:49:17.350Z,14.30
2019-05-20T02:51:22.994Z,14.20
2019-05-20T02:53:26.982Z,14.20
2019-05-20T02:55:30.987Z,14.10
2019-05-20T02:57:34.995Z,14.20
2019-05-20T02:59:39.210Z,14.20
2019-05-20T03:01:43.168Z,14.10
2019-05-20T03:03:47.223Z,14.10
2019-05-20T03:05:51.107Z,14.00
2019-05-20T03:07:57.991Z,14.00
2019-05-20T03:10:01.870Z,13.90
2019-05-20T03:12:05.882Z,14.00
2019-05-20T03:14:10.183Z,14.10
2019-05-20T03:16:15.754Z,14.00
2019-05-20T03:18:20.093Z,14.00
2019-05-20T03:20:24.201Z,14.00
2019-05-20T03:22:28.117Z,14.00
2019-05-20T03:24:32.113Z,13.90
2019-05-20T03:26:36.021Z,14.00
2019-05-20T03:28:39.914Z,14.00
2019-05-20T03:30:44.589Z,14.00
2019-05-20T03:32:48.545Z,14.10
2019-05-20T03:34:59.913Z,14.00
2019-05-20T03:37:02.837Z,14.00
2019-05-20T03:39:07.528Z,14.00
2019-05-20T03:41:12.878Z,14.10
2019-05-20T03:43:16.987Z,14.10
2019-05-20T03:45:21.003Z,14.10
2019-05-20T03:47:25.016Z,14.00
2019-05-20T03:49:29.022Z,14.10
2019-05-20T03:51:32.918Z,14.10
2019-05-20T03:53:36.828Z,14.20
2019-05-20T03:55:40.836Z,14.30
2019-05-20T03:57:44.938Z,14.30
2019-05-20T03:59:48.827Z,14.30
2019-05-20T04:01:52.810Z,14.40
2019-05-20T04:03:56.863Z,14.40
2019-05-20T04:06:00.863Z,14.50
2019-05-20T04:08:12.359Z,14.50
2019-05-20T04:10:16.259Z,14.50
2019-05-20T04:12:26.063Z,14.60
2019-05-20T04:14:29.979Z,14.60
2019-05-20T04:16:33.864Z,14.60
2019-05-20T04:18:37.815Z,14.50
2019-05-20T04:20:41.931Z,14.50
2019-05-20T04:22:45.977Z,14.50
2019-05-20T04:24:51.887Z,14.50
2019-05-20T04:27:00.708Z,14.60
2019-05-20T04:29:04.714Z,14.60
2019-05-20T04:31:08.825Z,14.60
2019-05-20T04:33:14.748Z,14.70
2019-05-20T04:35:23.180Z,14.80
2019-05-20T04:37:28.222Z,14.80
2019-05-20T04:39:32.333Z,14.80
2019-05-20T04:41:36.465Z,14.70
2019-05-20T04:43:42.088Z,14.70
2019-05-20T04:45:46.372Z,14.80
2019-05-20T04:47:50.412Z,14.80
2019-05-20T04:49:54.418Z,14.90
2019-05-20T04:51:58.435Z,15.00
2019-05-20T04:54:05.400Z,15.00
2019-05-20T04:56:09.512Z,15.00
2019-05-20T04:58:16.507Z,15.00
2019-05-20T05:00:39.657Z,15.20
2019-05-20T05:02:44.037Z,15.20
2019-05-20T05:04:48.163Z,15.20
2019-05-20T05:06:52.079Z,15.20
2019-05-20T05:08:55.987Z,15.20
2019-05-20T05:11:00.094Z,15.30
2019-05-20T05:13:04.082Z,15.30
2019-05-20T05:15:10.171Z,15.30
2019-05-20T05:17:16.760Z,15.30
2019-05-20T05:19:20.714Z,15.40
2019-05-20T05:21:24.840Z,15.50
2019-05-20T05:23:28.858Z,15.50
2019-05-20T05:25:33.063Z,15.60
2019-05-20T05:27:37.176Z,15.60
2019-05-20T05:29:41.181Z,15.70
2019-05-20T05:31:45.084Z,15.70
2019-05-20T05:33:49.013Z,15.70
2019-05-20T05:35:53.857Z,15.70
2019-05-20T05:38:02.025Z,15.80
2019-05-20T05:40:08.232Z,15.80
2019-05-20T05:42:12.263Z,15.80
2019-05-20T05:44:16.129Z,15.90
2019-05-20T05:46:21.539Z,15.90
2019-05-20T05:48:25.477Z,15.90
2019-05-20T05:50:29.551Z,16.00
2019-05-20T05:52:35.095Z,16.00
2019-05-20T05:54:39.115Z,16.00
2019-05-20T05:56:43.452Z,16.00
2019-05-20T05:58:49.167Z,16.00
2019-05-20T06:00:53.190Z,16.10
2019-05-20T06:02:59.152Z,16.00
2019-05-20T06:05:03.155Z,16.00
2019-05-20T06:07:07.042Z,16.00
2019-05-20T06:09:10.949Z,16.00
2019-05-20T06:11:14.954Z,16.10
2019-05-20T06:13:18.834Z,16.20
2019-05-20T06:15:23.379Z,16.10
2019-05-20T06:17:27.554Z,16.00
2019-05-20T06:19:31.494Z,16.10
2019-05-20T06:21:35.534Z,16.10
2019-05-20T06:23:39.841Z,16.10
2019-05-20T06:25:43.927Z,16.20
2019-05-20T06:27:48.187Z,16.20
2019-05-20T06:29:52.366Z,16.20
2019-05-20T06:31:56.298Z,16.20
2019-05-20T06:34:00.475Z,16.30
2019-05-20T06:36:04.402Z,16.40
2019-05-20T06:38:10.113Z,16.40
2019-05-20T06:40:14.328Z,16.40
2019-05-20T06:42:18.184Z,16.50
2019-05-20T06:44:22.176Z,16.50
2019-05-20T06:46:26.161Z,16.50
2019-05-20T06:48:30.164Z,16.50
2019-05-20T06:50:34.174Z,16.50
2019-05-20T06:52:38.095Z,16.60
2019-05-20T06:54:42.227Z,16.50
2019-05-20T06:56:46.583Z,16.60
2019-05-20T06:58:51.014Z,16.60
2019-05-20T07:00:54.885Z,16.70
2019-05-20T07:02:58.751Z,16.70
2019-05-20T07:05:02.631Z,16.70
2019-05-20T07:07:19.864Z,16.80
2019-05-20T07:09:12.186Z,16.80
2019-05-20T07:11:16.298Z,16.80
2019-05-20T07:13:20.235Z,16.80
2019-05-20T07:15:24.310Z,16.80
2019-05-20T07:17:28.324Z,16.80
2019-05-20T07:19:35.294Z,16.80
2019-05-20T07:21:39.475Z,16.90
2019-05-20T07:23:43.374Z,16.90
2019-05-20T07:25:47.363Z,16.90
2019-05-20T07:27:51.327Z,17.00
2019-05-20T07:29:55.435Z,17.00
2019-05-20T07:31:59.393Z,17.00
2019-05-20T07:34:03.367Z,17.00
2019-05-20T07:36:09.977Z,17.10
2019-05-20T07:38:12.897Z,17.10
2019-05-20T07:40:19.775Z,17.20
2019-05-20T07:42:25.323Z,17.20
2019-05-20T07:44:29.221Z,17.30
2019-05-20T07:46:33.418Z,17.30
2019-05-20T07:48:38.219Z,17.40
2019-05-20T07:50:45.547Z,17.40
2019-05-20T07:52:49.617Z,17.40
2019-05-20T07:54:54.735Z,17.40
2019-05-20T07:57:01.605Z,17.40
2019-05-20T07:59:07.616Z,17.40
2019-05-20T08:01:11.536Z,17.50
2019-05-20T08:03:15.503Z,17.50
2019-05-20T08:05:19.335Z,17.40
2019-05-20T08:07:29.916Z,17.50
2019-05-20T08:09:28.888Z,17.50
2019-05-20T08:11:32.797Z,17.60
2019-05-20T08:13:36.764Z,17.60
2019-05-20T08:15:40.689Z,17.60
2019-05-20T08:17:44.571Z,17.60
2019-05-20T08:19:49.027Z,17.60
2019-05-20T08:21:53.034Z,17.60
2019-05-20T08:23:57.041Z,17.60
2019-05-20T08:26:01.052Z,17.70
2019-05-20T08:28:05.162Z,17.70
2019-05-20T08:30:13.698Z,17.70
2019-05-20T08:32:15.475Z,17.70
2019-05-20T08:34:19.485Z,17.70
2019-05-20T08:36:23.444Z,17.80
2019-05-20T08:38:27.450Z,17.80
2019-05-20T08:40:31.457Z,17.80
2019-05-20T08:42:37.885Z,17.90
2019-05-20T08:44:41.523Z,18.00
2019-05-20T08:46:47.737Z,18.00
2019-05-20T08:48:51.773Z,18.10
2019-05-20T08:50:55.797Z,18.20
2019-05-20T08:53:07.619Z,18.20
2019-05-20T08:55:11.627Z,18.20
2019-05-20T08:57:15.604Z,18.20
2019-05-20T08:59:20.028Z,18.20
2019-05-20T09:01:23.917Z,18.30
2019-05-20T09:03:30.343Z,18.30
2019-05-20T09:05:33.667Z,18.30
2019-05-20T09:07:37.676Z,18.40
2019-05-20T09:09:42.744Z,18.30
2019-05-20T09:11:47.956Z,18.30
2019-05-20T09:13:52.431Z,18.20
2019-05-20T09:15:56.484Z,18.20
2019-05-20T09:18:01.933Z,18.20
2019-05-20T09:20:07.434Z,18.20
2019-05-20T09:22:11.321Z,18.20
2019-05-20T09:24:18.627Z,18.20
2019-05-20T09:26:20.824Z,18.20
2019-05-20T09:28:25.034Z,18.20
2019-05-20T09:30:28.986Z,18.10
2019-05-20T09:32:33.140Z,18.00
2019-05-20T09:34:37.264Z,18.10
2019-05-20T09:36:41.278Z,18.00
2019-05-20T09:38:45.486Z,18.00
2019-05-20T09:40:49.881Z,18.00
2019-05-20T09:42:53.809Z,18.00
2019-05-20T09:45:01.227Z,17.90
2019-05-20T09:47:03.194Z,18.00
2019-05-20T09:49:07.367Z,18.00
2019-05-20T09:51:11.291Z,18.00
2019-05-20T09:53:15.133Z,18.10
2019-05-20T09:55:19.032Z,18.20
2019-05-20T09:57:24.455Z,18.30
2019-05-20T09:59:42.100Z,18.40
2019-05-20T10:01:33.894Z,18.40
2019-05-20T10:03:37.771Z,18.50
2019-05-20T10:05:41.622Z,18.60
2019-05-20T10:07:45.688Z,18.70
2019-05-20T10:09:49.815Z,18.90
2019-05-20T10:11:53.713Z,19.00
2019-05-20T10:13:57.811Z,19.10
2019-05-20T10:16:01.873Z,19.10
2019-05-20T10:18:05.931Z,19.00
2019-05-20T10:20:11.176Z,19.00
2019-05-20T10:22:15.377Z,18.90
2019-05-20T10:24:19.390Z,19.00
2019-05-20T10:26:23.404Z,19.00
2019-05-20T10:28:27.507Z,19.00
2019-05-20T10:30:31.516Z,19.00
2019-05-20T10:32:38.594Z,19.30
2019-05-20T10:34:42.515Z,19.30
2019-05-20T10:36:46.478Z,19.40
2019-05-20T10:38:58.701Z,19.40
2019-05-20T10:40:56.103Z,19.50
2019-05-20T10:42:59.990Z,19.50
2019-05-20T10:45:07.178Z,19.50
2019-05-20T10:47:11.410Z,19.50
2019-05-20T10:49:15.311Z,19.40
2019-05-20T10:51:19.283Z,19.40
2019-05-20T10:53:23.227Z,19.30
2019-05-20T10:55:27.086Z,19.20
2019-05-20T10:57:31.088Z,19.30
2019-05-20T10:59:35.092Z,19.40
2019-05-20T11:01:38.996Z,19.60
2019-05-20T11:03:43.066Z,19.70
2019-05-20T11:05:47.011Z,19.90
2019-05-20T11:07:51.037Z,20.00
2019-05-20T11:09:55.231Z,20.10
2019-05-20T11:12:01.803Z,20.10
2019-05-20T11:14:05.917Z,20.20
2019-05-20T11:16:11.556Z,20.40
2019-05-20T11:18:15.498Z,20.50
2019-05-20T11:20:19.573Z,20.60
2019-05-20T11:22:23.684Z,20.80
2019-05-20T11:24:27.735Z,21.30
2019-05-20T11:26:31.908Z,21.40
2019-05-20T11:28:36.014Z,21.50
2019-05-20T11:30:39.857Z,21.60
2019-05-20T11:32:43.910Z,21.40
2019-05-20T11:34:47.982Z,21.30
2019-05-20T11:36:51.989Z,21.40
2019-05-20T11:38:56.003Z,21.20
2019-05-20T11:40:59.954Z,21.10
2019-05-20T11:43:03.965Z,21.00
2019-05-20T11:45:11.757Z,20.80
2019-05-20T11:47:15.974Z,20.80
2019-05-20T11:49:19.860Z,20.70
2019-05-20T11:51:23.751Z,20.60
2019-05-20T11:53:27.790Z,20.50
2019-05-20T11:55:31.927Z,20.50
2019-05-20T11:57:36.084Z,20.50
2019-05-20T11:59:39.943Z,20.50
2019-05-20T12:01:44.028Z,20.60
2019-05-20T12:03:48.034Z,20.70
2019-05-20T12:05:52.254Z,20.80
2019-05-20T12:07:56.269Z,20.90
2019-05-20T12:10:00.478Z,21.10
2019-05-20T12:12:04.580Z,21.30
2019-05-20T12:14:08.466Z,21.60
2019-05-20T12:16:12.489Z,21.90
2019-05-20T12:18:16.498Z,22.20
2019-05-20T12:20:20.638Z,22.10
2019-05-20T12:22:24.528Z,21.90
2019-05-20T12:24:28.811Z,21.70
2019-05-20T12:26:32.788Z,21.50
2019-05-20T12:28:37.052Z,21.30
2019-05-20T12:30:41.181Z,21.40
2019-05-20T12:32:45.254Z,21.30
2019-05-20T12:34:49.177Z,21.30
2019-05-20T12:36:53.691Z,21.30
2019-05-20T12:38:58.150Z,21.80
2019-05-20T12:41:02.351Z,22.30
2019-05-20T12:43:06.641Z,22.80
2019-05-20T12:45:12.048Z,23.10
2019-05-20T12:47:16.159Z,22.80
2019-05-20T12:49:20.639Z,22.50
2019-05-20T12:51:24.931Z,22.40
2019-05-20T12:53:29.218Z,22.30
2019-05-20T12:55:33.331Z,22.30
2019-05-20T12:57:37.359Z,22.20
2019-05-20T12:59:41.569Z,22.20
2019-05-20T13:01:45.777Z,22.20
2019-05-20T13:03:49.652Z,22.30
2019-05-20T13:05:53.691Z,22.80
2019-05-20T13:07:57.903Z,23.00
2019-05-20T13:10:03.213Z,23.00
2019-05-20T13:12:07.709Z,23.50
2019-05-20T13:14:11.640Z,24.10
2019-05-20T13:16:15.569Z,24.60
2019-05-20T13:18:19.422Z,24.40
2019-05-20T13:20:25.367Z,24.20
2019-05-20T13:22:29.042Z,23.90
2019-05-20T13:24:33.037Z,23.70
2019-05-20T13:26:37.053Z,23.70
2019-05-20T13:28:41.256Z,24.10
2019-05-20T13:30:45.982Z,24.50
2019-05-20T13:32:50.090Z,25.20
2019-05-20T13:34:53.982Z,25.60
2019-05-20T13:36:57.891Z,25.90
2019-05-20T13:39:01.806Z,25.90
2019-05-20T13:41:05.740Z,25.90
2019-05-20T13:43:09.599Z,25.90
2019-05-20T13:45:14.585Z,25.70
2019-05-20T13:47:18.662Z,25.00
2019-05-20T13:49:22.667Z,25.20
2019-05-20T13:51:26.672Z,25.50
2019-05-20T13:53:30.733Z,25.90
2019-05-20T13:55:34.994Z,26.10
2019-05-20T13:57:40.017Z,26.40
2019-05-20T13:59:44.059Z,26.70
2019-05-20T14:01:48.083Z,26.90
2019-05-20T14:03:52.058Z,26.90
2019-05-20T14:05:56.056Z,27.10
2019-05-20T14:07:59.952Z,26.90
2019-05-20T14:10:12.365Z,27.10
2019-05-20T14:12:16.477Z,26.90
2019-05-20T14:14:20.333Z,27.10
2019-05-20T14:16:24.167Z,27.10
2019-05-20T14:18:28.065Z,27.20
2019-05-20T14:20:31.889Z,27.00
2019-05-20T14:22:35.746Z,27.20
2019-05-20T14:24:39.826Z,27.50
2019-05-20T14:26:44.003Z,27.40
2019-05-20T14:28:48.053Z,26.90
2019-05-20T14:30:52.031Z,26.50
2019-05-20T14:32:56.351Z,26.40
2019-05-20T14:35:00.367Z,26.20
2019-05-20T14:37:04.464Z,26.10
2019-05-20T14:39:10.138Z,26.40
2019-05-20T14:41:21.710Z,26.50
2019-05-20T14:43:19.663Z,26.80
2019-05-20T14:45:23.670Z,26.30
2019-05-20T14:47:27.678Z,26.20
2019-05-20T14:49:31.693Z,26.30
2019-05-20T14:51:38.663Z,26.10
2019-05-20T14:53:45.434Z,26.00
2019-05-20T14:55:49.646Z,25.70
2019-05-20T14:57:56.521Z,25.60
2019-05-20T15:00:04.716Z,25.40
2019-05-20T15:02:08.718Z,25.20
2019-05-20T15:04:12.602Z,25.40
2019-05-20T15:06:16.503Z,25.80
2019-05-20T15:08:20.354Z,25.80
2019-05-20T15:10:24.512Z,26.00
2019-05-20T15:12:28.672Z,26.40
2019-05-20T15:14:32.595Z,26.70
2019-05-20T15:16:36.589Z,26.60
2019-05-20T15:18:40.446Z,26.00
2019-05-20T15:20:45.866Z,26.00
2019-05-20T15:22:49.821Z,25.90
2019-05-20T15:24:53.911Z,25.90
2019-05-20T15:26:58.110Z,26.10
2019-05-20T15:29:03.372Z,26.20
2019-05-20T15:31:08.025Z,26.10
2019-05-20T15:33:12.048Z,26.50
2019-05-20T15:35:19.215Z,26.50
2019-05-20T15:37:23.224Z,26.70
2019-05-20T15:39:27.241Z,26.50
2019-05-20T15:41:31.252Z,26.10
2019-05-20T15:43:36.593Z,26.00
2019-05-20T15:45:40.662Z,26.10
2019-05-20T15:47:44.792Z,26.20
2019-05-20T15:49:48.799Z,26.10
2019-05-20T15:51:52.808Z,26.10
2019-05-20T15:53:56.916Z,26.20
2019-05-20T15:56:00.921Z,26.10
2019-05-20T15:58:04.935Z,26.00
2019-05-20T16:00:09.557Z,25.90
2019-05-20T16:02:13.590Z,25.60
2019-05-20T16:04:17.779Z,25.50
2019-05-20T16:06:21.883Z,25.30
2019-05-20T16:08:25.904Z,24.90
2019-05-20T16:10:30.015Z,24.70
2019-05-20T16:12:34.459Z,24.60
2019-05-20T16:14:41.416Z,24.50
2019-05-20T16:16:47.043Z,24.60
2019-05-20T16:18:50.907Z,24.80
2019-05-20T16:20:54.862Z,24.80
2019-05-20T16:23:01.930Z,24.80
2019-05-20T16:25:09.119Z,24.90
2019-05-20T16:27:13.230Z,25.00
2019-05-20T16:29:17.334Z,24.70
2019-05-20T16:31:21.544Z,24.80
2019-05-20T16:33:25.452Z,24.60
2019-05-20T16:35:32.233Z,24.60
2019-05-20T16:37:36.242Z,24.60
2019-05-20T16:39:40.136Z,24.70
2019-05-20T16:41:44.244Z,24.60
2019-05-20T16:43:48.150Z,24.40
2019-05-20T16:45:53.582Z,24.30
2019-05-20T16:47:57.496Z,24.20
2019-05-20T16:50:01.506Z,24.00
2019-05-20T16:52:05.802Z,24.00
2019-05-20T16:54:09.967Z,24.00
2019-05-20T16:56:14.036Z,23.80
2019-05-20T16:58:18.041Z,23.80
2019-05-20T17:00:31.261Z,23.80
2019-05-20T17:02:29.249Z,23.70
2019-05-20T17:04:33.140Z,23.70
2019-05-20T17:06:37.047Z,23.70
2019-05-20T17:08:41.258Z,23.70
2019-05-20T17:10:45.409Z,23.70
2019-05-20T17:12:49.785Z,23.60
2019-05-20T17:14:53.911Z,23.40
2019-05-20T17:16:58.281Z,23.30
2019-05-20T17:19:07.377Z,23.10
2019-05-20T17:21:12.024Z,23.10
2019-05-20T17:23:16.828Z,23.00
2019-05-20T17:25:21.577Z,23.00
2019-05-20T17:27:25.727Z,22.90
2019-05-20T17:29:34.568Z,22.90
2019-05-20T17:31:39.806Z,22.80
2019-05-20T17:33:46.232Z,22.70
2019-05-20T17:35:52.719Z,22.70
2019-05-20T17:37:56.734Z,22.60
2019-05-20T17:40:00.550Z,22.40
2019-05-20T17:42:06.080Z,22.40
2019-05-20T17:44:11.030Z,22.40
2019-05-20T17:46:15.826Z,22.20
2019-05-20T17:48:19.789Z,22.10
2019-05-20T17:50:23.836Z,22.10
2019-05-20T17:52:27.843Z,22.10
2019-05-20T17:54:31.854Z,22.10
2019-05-20T17:56:36.067Z,22.00
2019-05-20T17:58:39.970Z,22.00
2019-05-20T18:00:44.017Z,21.90
2019-05-20T18:02:47.986Z,21.80
2019-05-20T18:04:51.947Z,21.70
2019-05-20T18:06:55.903Z,21.70
2019-05-20T18:09:01.574Z,21.50
2019-05-20T18:11:05.665Z,21.50
2019-05-20T18:13:09.502Z,21.50
2019-05-20T18:15:13.946Z,21.40
2019-05-20T18:17:17.851Z,21.30
2019-05-20T18:19:21.897Z,21.40
2019-05-20T18:21:25.796Z,21.30
2019-05-20T18:23:29.798Z,21.30
2019-05-20T18:25:33.692Z,21.20
2019-05-20T18:27:38.431Z,21.10
2019-05-20T18:29:42.970Z,21.00
2019-05-20T18:31:46.838Z,21.00
2019-05-20T18:33:50.866Z,20.90
2019-05-20T18:35:54.772Z,20.90
2019-05-20T18:38:02.546Z,20.70
2019-05-20T18:40:15.005Z,20.60
2019-05-20T18:42:22.961Z,20.60
2019-05-20T18:44:27.041Z,20.50
2019-05-20T18:46:30.927Z,20.40
2019-05-20T18:48:34.844Z,20.30
2019-05-20T18:50:38.799Z,20.20
2019-05-20T18:52:42.807Z,20.20
2019-05-20T18:54:46.837Z,20.10
2019-05-20T18:56:50.933Z,20.00
2019-05-20T18:58:54.863Z,20.00
2019-05-20T19:00:58.719Z,19.90
2019-05-20T19:03:02.741Z,19.90
2019-05-20T19:05:08.654Z,19.90
2019-05-20T19:07:12.629Z,19.80
2019-05-20T19:09:16.603Z,19.70
2019-05-20T19:11:20.615Z,19.70
2019-05-20T19:13:24.498Z,19.60
2019-05-20T19:15:30.156Z,19.60
2019-05-20T19:17:36.924Z,19.50
2019-05-20T19:19:41.050Z,19.40
2019-05-20T19:21:44.964Z,19.40
2019-05-20T19:23:48.964Z,19.30
2019-05-20T19:25:52.873Z,19.20
2019-05-20T19:27:56.876Z,19.10
2019-05-20T19:30:02.295Z,19.00
2019-05-20T19:32:07.038Z,18.90
2019-05-20T19:34:10.951Z,18.90
2019-05-20T19:36:14.970Z,18.90
2019-05-20T19:38:19.076Z,19.00
2019-05-20T19:40:22.940Z,19.00
2019-05-20T19:42:26.841Z,19.00
2019-05-20T19:44:30.761Z,18.90
2019-05-20T19:46:34.683Z,18.90
2019-05-20T19:48:38.741Z,18.90
2019-05-20T19:50:42.802Z,18.70
2019-05-20T19:52:46.725Z,18.70
2019-05-20T19:54:50.721Z,18.70
2019-05-20T19:56:54.703Z,18.60
2019-05-20T19:58:58.629Z,18.60
2019-05-20T20:01:02.537Z,18.60
2019-05-20T20:03:06.434Z,18.60
2019-05-20T20:05:10.449Z,18.50
2019-05-20T20:07:15.345Z,18.50
2019-05-20T20:09:19.382Z,18.40
2019-05-20T20:11:24.867Z,18.20
2019-05-20T20:13:33.490Z,18.20
2019-05-20T20:15:35.880Z,18.20
2019-05-20T20:17:39.820Z,18.10
2019-05-20T20:19:43.728Z,18.00
2019-05-20T20:21:47.633Z,18.10
2019-05-20T20:23:51.634Z,17.90
2019-05-20T20:25:57.315Z,17.80
2019-05-20T20:28:02.742Z,17.70
2019-05-20T20:30:08.396Z,17.60
2019-05-20T20:32:12.238Z,17.50
2019-05-20T20:34:18.943Z,17.40
2019-05-20T20:36:22.931Z,17.40
2019-05-20T20:38:26.863Z,17.40
2019-05-20T20:40:30.758Z,17.40
2019-05-20T20:42:34.664Z,17.40
2019-05-20T20:44:38.803Z,17.40
2019-05-20T20:46:42.672Z,17.30
2019-05-20T20:48:46.788Z,17.30
2019-05-20T20:50:50.699Z,17.20
2019-05-20T20:52:54.803Z,17.10
2019-05-20T20:54:58.668Z,17.10
2019-05-20T20:57:02.717Z,17.20
2019-05-20T20:59:06.645Z,17.10
2019-05-20T21:01:10.632Z,17.10
2019-05-20T21:03:14.540Z,17.10
2019-05-20T21:05:18.644Z,17.10
2019-05-20T21:07:22.550Z,17.10
2019-05-20T21:09:26.596Z,17.10
2019-05-20T21:11:30.546Z,17.00
2019-05-20T21:13:34.522Z,17.00
2019-05-20T21:15:38.583Z,17.00
2019-05-20T21:17:42.459Z,16.90
2019-05-20T21:19:46.390Z,16.80
2019-05-20T21:21:50.405Z,16.70
2019-05-20T21:23:54.293Z,16.70
2019-05-20T21:25:58.213Z,16.60
2019-05-20T21:28:02.042Z,16.60
2019-05-20T21:30:08.484Z,16.50
2019-05-20T21:32:12.339Z,16.30
2019-05-20T21:34:16.294Z,16.30
2019-05-20T21:36:20.302Z,16.20
2019-05-20T21:38:24.309Z,16.20
2019-05-20T21:40:28.226Z,16.20
2019-05-20T21:42:32.331Z,16.20
2019-05-20T21:44:36.319Z,16.20
2019-05-20T21:46:40.641Z,16.30
2019-05-20T21:48:44.474Z,16.30
2019-05-20T21:50:48.433Z,16.40
2019-05-20T21:52:52.465Z,16.30
2019-05-20T21:54:56.507Z,16.30
2019-05-20T21:57:00.371Z,16.20
2019-05-20T21:59:04.485Z,16.20
2019-05-20T22:01:08.592Z,16.20
2019-05-20T22:03:23.860Z,16.10
2019-05-20T22:05:18.348Z,16.20
2019-05-20T22:07:22.457Z,16.20
2019-05-20T22:09:26.365Z,16.00
2019-05-20T22:11:30.290Z,15.90
2019-05-20T22:13:34.087Z,16.00
2019-05-20T22:15:38.086Z,16.00
2019-05-20T22:17:42.070Z,15.80
2019-05-20T22:19:46.094Z,15.80
2019-05-20T22:22:06.714Z,15.80
2019-05-20T22:24:10.697Z,15.90
2019-05-20T22:26:14.706Z,15.90
2019-05-20T22:28:18.708Z,15.90
2019-05-20T22:30:22.857Z,15.80
2019-05-20T22:32:26.838Z,15.80
2019-05-20T22:34:30.838Z,15.60
2019-05-20T22:36:34.778Z,15.70
2019-05-20T22:38:39.917Z,15.60
2019-05-20T22:40:44.192Z,15.60
2019-05-20T22:42:48.104Z,15.60
2019-05-20T22:44:52.343Z,15.50
2019-05-20T22:46:56.420Z,15.50
2019-05-20T22:49:01.051Z,15.50
2019-05-20T22:51:05.028Z,15.50
2019-05-20T22:53:08.934Z,15.50
2019-05-20T22:55:13.392Z,15.50
2019-05-20T22:57:18.080Z,15.40
2019-05-20T22:59:22.052Z,15.30
2019-05-20T23:01:25.997Z,15.30
2019-05-20T23:03:29.931Z,15.30
2019-05-20T23:05:34.024Z,15.20
2019-05-20T23:07:37.903Z,15.20
2019-05-20T23:09:42.100Z,15.20
2019-05-20T23:11:46.969Z,15.10
2019-05-20T23:13:50.875Z,15.00
2019-05-20T23:15:55.807Z,15.00
2019-05-20T23:18:00.947Z,15.10
2019-05-20T23:20:06.609Z,15.00
2019-05-20T23:22:10.847Z,15.00
2019-05-20T23:24:15.255Z,15.00
2019-05-20T23:26:19.067Z,14.90
2019-05-20T23:28:24.656Z,14.90
2019-05-20T23:30:28.504Z,14.90
2019-05-20T23:32:32.575Z,14.90
2019-05-20T23:34:38.639Z,14.90
2019-05-20T23:36:42.639Z,15.00
2019-05-20T23:38:46.545Z,14.90
2019-05-20T23:40:50.594Z,14.90
2019-05-20T23:42:56.022Z,14.80
2019-05-20T23:45:00.001Z,14.70
2019-05-20T23:47:04.223Z,14.70
2019-05-20T23:49:08.160Z,14.70
2019-05-20T23:51:12.848Z,14.70
2019-05-20T23:53:17.525Z,14.60
2019-05-20T23:55:21.435Z,14.60
2019-05-20T23:57:25.415Z,14.50
2019-05-20T23:59:30.697Z,14.50
